Kramer, ND

12:27 PM CDT on August 21, 2014 (GMT -0500)
RAWS J. CLARK SALYER ND US | Change Station
CLOSE
Current Station
Personal Weather Station
Location: Upham, ND
Elevation: 1439 ft
Nearby Weather Stations
Active Advisory: Flood Warning Active Notice: Local Storm Report

Elev 1439 ft 48.62 °N, 100.73 °W | Updated 41 minutes ago

Scattered Clouds
Scattered Clouds
72 °F
Feels Like 71 °F
N
5
Wind Variable Wind from West
Gusts 11.0 mph

Today
High -- | Low -- °F
--% Chance of Precip.
Yesterday
High -- | Low -- °F
Precip. -- in
6:44 AM 8:46 PM
Waning Crescent, 13% visible
Pressure 29.82 in
Visibility 10.0 miles
Clouds Few 1200 ft
Scattered Clouds 2700 ft
Heat Index 71 °F
Dew Point 67 °F
Humidity 83%
Rainfall 0.80 in
Snow Depth Not available.
UV 6 out of 12
Pollen 6.50 out of 12
Air Quality Not available.
Flu Activity Not available.
METAR KRUG 211715Z AUTO 34004KT 10SM FEW012 SCT027 22/20 A2982 RMK AO2

More Conditions Fewer Conditions

Pressure 29.82 in
Visibility 10.0 miles
Clouds Few 1200 ft
Scattered Clouds 2700 ft
Heat Index 71 °F
Dew Point 67 °F
Humidity 83%
Rainfall 0.80 in
Snow Depth Not available.
UV 6 out of 12
Pollen 6.50 out of 12
Air Quality Not available.
Flu Activity Not available.
METAR KRUG 211715Z AUTO 34004KT 10SM FEW012 SCT027 22/20 A2982 RMK AO2

More Conditions Fewer Conditions

10-Day Weather Forecast

Almanac

Astronomy

Aug. 21, 2014 Rise Set
Actual Time 6:44 AM CDT 8:46 PM CDT
Civil Twilight 6:10 AM CDT 9:20 PM CDT
Nautical Twilight 5:28 AM CDT 10:01 PM CDT
Astronomical Twilight 4:40 AM CDT 10:48 PM CDT
Moon 3:07 AM CDT 6:23 PM CDT
Length of Visible Light 15h 09m
Length of Day
14h 01m
Tomorrow will be 3m 18s shorter.
Waning Crescent, 13% of the Moon is Illuminated
Today
Waning Crescent
Aug 25
New
Sep 2
First Quarter
Sep 8
Full
Sep 15
Last Quarter

Today's Extremes

State Highs State Lows

Community

WunderPhotos

Upload Photos

1,745,969 photos uploaded!

Nearby

Snow Depth

Station Depth Elevation
No new snow has been reported.

Earthquake Activity

City Distance Mag. Time & Date
No recent earthquake activity has been reported nearby.
Minimum magnitude displayed is 2.5.

Coastal Water Temperatures

Place Temperature
No Stations Reporting

Nearby Weather Stations